Time;durP1;ratioP1;P1;durP2;ratioP2;P2;SDS_P1;SDS_P2;PMS_P1;PMS_P2;Temp;Humidity;BMP_temperature;BMP_pressure;BME280_temperature;BME280_humidity;BME280_pressure;Samples;Min_cycle;Max_cycle;Signal;HPM_P1;HPM_P2
2021/05/06 00:43:05;;;;;;;2.10;1.70;;;8.80;99.90;;;;;;5068967;28;20472;-58
2021/05/06 01:04:31;;;;;;;1.77;1.63;;;8.60;99.90;;;;;;5069026;28;20429;-59
2021/05/06 01:09:49;;;;;;;6.53;2.00;;;8.40;99.90;;;;;;5056249;28;20401;-58
2021/05/06 01:12:15;;;;;;;2.13;1.47;;;8.40;99.90;;;;;;5055801;28;20446;-61
2021/05/06 01:14:40;;;;;;;2.30;2.10;;;8.40;99.90;;;;;;5055947;28;20401;-59
2021/05/06 01:17:06;;;;;;;4.13;1.80;;;8.40;99.90;;;;;;5055861;28;20195;-61
2021/05/06 01:19:31;;;;;;;2.40;1.70;;;8.50;99.90;;;;;;5055877;28;20213;-61
2021/05/06 01:21:57;;;;;;;2.47;2.00;;;8.40;99.90;;;;;;5055742;28;20179;-57
2021/05/06 01:24:23;;;;;;;2.33;1.63;;;8.40;99.90;;;;;;5055417;28;20174;-61
2021/05/06 01:26:58;;;;;;;2.60;1.97;;;8.50;99.90;;;;;;5055316;28;20181;-58
2021/05/06 01:29:34;;;;;;;3.13;2.00;;;8.50;99.90;;;;;;5055789;28;20814;-59
2021/05/06 01:34:26;;;;;;;2.57;2.37;;;8.60;99.90;;;;;;5055594;28;20457;-60
2021/05/06 01:37:09;;;;;;;3.70;2.10;;;8.60;99.90;;;;;;5055257;28;20565;-60
2021/05/06 02:00:38;;;;;;;2.30;2.10;;;8.90;99.90;;;;;;5055162;28;20369;-60
2021/05/06 02:03:04;;;;;;;3.80;2.03;;;9.00;99.90;;;;;;5079173;22;20497;-59
2021/05/06 02:05:30;;;;;;;3.10;2.10;;;8.80;99.90;;;;;;5054882;28;20402;-56
2021/05/06 02:07:56;;;;;;;3.50;2.10;;;8.90;99.90;;;;;;5054729;28;20444;-59
2021/05/06 02:10:25;;;;;;;2.90;2.27;;;9.00;99.90;;;;;;5054620;28;20171;-57
2021/05/06 02:12:51;;;;;;;4.00;2.40;;;9.00;99.90;;;;;;5060804;28;20818;-59
2021/05/06 02:15:22;;;;;;;4.20;2.43;;;8.90;99.90;;;;;;5074946;28;20394;-59
2021/05/06 02:17:48;;;;;;;2.70;2.17;;;9.10;99.90;;;;;;5074579;28;20233;-57
2021/05/06 02:20:16;;;;;;;4.07;2.10;;;9.20;99.90;;;;;;5073265;28;20429;-58
2021/05/06 02:22:43;;;;;;;2.70;2.33;;;9.20;99.90;;;;;;5074384;28;20451;-58
2021/05/06 02:25:09;;;;;;;4.33;2.53;;;9.30;99.90;;;;;;5074131;28;20408;-56
2021/05/06 02:27:35;;;;;;;4.20;2.27;;;9.30;99.90;;;;;;5074731;28;20398;-59
2021/05/06 02:30:01;;;;;;;2.40;1.80;;;9.10;99.90;;;;;;5074445;28;20915;-59
2021/05/06 02:32:28;;;;;;;2.40;2.17;;;9.10;99.90;;;;;;5074515;28;20187;-59
2021/05/06 02:34:55;;;;;;;2.90;2.43;;;9.20;99.90;;;;;;5074475;28;20546;-59
2021/05/06 02:37:21;;;;;;;3.03;2.60;;;9.00;99.90;;;;;;5073909;28;20471;-59
2021/05/06 02:39:47;;;;;;;3.23;2.27;;;8.90;99.90;;;;;;5072815;28;20913;-57
2021/05/06 02:42:13;;;;;;;4.83;2.20;;;9.00;99.90;;;;;;5074020;28;20403;-57
2021/05/06 02:44:40;;;;;;;2.83;2.63;;;9.00;99.90;;;;;;5073817;28;20411;-58
2021/05/06 02:47:06;;;;;;;4.40;2.47;;;9.00;99.90;;;;;;5074269;28;20443;-58
2021/05/06 02:49:32;;;;;;;2.50;2.17;;;9.10;99.90;;;;;;5070462;28;20963;-59
2021/05/06 02:52:11;;;;;;;5.40;2.70;;;9.10;99.90;;;;;;5065258;28;20512;-59
2021/05/06 02:54:43;;;;;;;4.37;2.00;;;9.20;99.90;;;;;;5073904;28;20247;-58
2021/05/06 03:02:43;;;;;;;2.67;2.47;;;9.10;99.90;;;;;;5073799;28;20418;-58
2021/05/06 03:05:05;;;;;;;3.57;2.63;;;9.10;99.90;;;;;;5074162;28;20459;-58
2021/05/06 03:07:32;;;;;;;4.53;3.40;;;9.10;99.90;;;;;;5073803;28;20408;-59
2021/05/06 03:10:25;;;;;;;4.30;2.60;;;9.00;99.90;;;;;;5073821;28;20459;-57
2021/05/06 03:23:42;;;;;;;3.10;2.50;;;8.60;99.90;;;;;;5073388;28;20447;-57
2021/05/06 03:26:09;;;;;;;3.83;2.77;;;8.50;99.90;;;;;;5073530;28;20405;-58
2021/05/06 03:28:39;;;;;;;4.60;3.13;;;8.40;99.90;;;;;;5072254;28;20168;-59
2021/05/06 03:41:54;;;;;;;4.97;3.23;;;8.10;99.90;;;;;;5073753;28;20427;-56
2021/05/06 04:12:05;;;;;;;3.00;2.73;;;8.00;99.90;;;;;;5075351;28;20967;-58
2021/05/06 04:14:56;;;;;;;2.93;2.30;;;8.30;99.90;;;;;;5072278;28;20503;-59
2021/05/06 04:17:47;;;;;;;2.80;2.10;;;8.30;99.90;;;;;;5072943;28;20527;-58
2021/05/06 04:31:20;;;;;;;3.03;2.60;;;8.10;99.90;;;;;;5052983;28;20735;-58
2021/05/06 04:38:58;;;;;;;3.40;2.50;;;8.10;99.90;;;;;;5053069;28;20412;-59
2021/05/06 04:41:37;;;;;;;2.70;2.50;;;8.00;99.90;;;;;;5052804;28;20414;-59
2021/05/06 04:54:39;;;;;;;3.53;3.23;;;8.00;99.90;;;;;;5056155;28;20470;-59
2021/05/06 05:05:28;;;;;;;2.60;2.13;;;8.00;99.90;;;;;;5076215;28;20387;-57
2021/05/06 05:08:00;;;;;;;3.80;2.60;;;8.00;99.90;;;;;;5076439;28;20421;-56
2021/05/06 05:10:52;;;;;;;3.87;2.77;;;8.10;99.90;;;;;;5076052;28;20593;-58
2021/05/06 05:23:21;;;;;;;3.50;2.40;;;8.70;99.90;;;;;;5075740;28;20786;-58
2021/05/06 05:24:13;;;;;;;3.27;2.40;;;8.60;99.90;;;;;;5075356;28;20428;-57
2021/05/06 05:26:38;;;;;;;3.60;3.00;;;8.70;99.90;;;;;;5075837;28;20774;-58
2021/05/06 05:29:04;;;;;;;4.33;3.20;;;8.70;99.90;;;;;;5075275;28;20405;-58
2021/05/06 05:31:29;;;;;;;5.33;3.23;;;8.70;99.90;;;;;;5075390;28;20171;-58
2021/05/06 05:34:18;;;;;;;3.47;3.17;;;8.80;99.90;;;;;;5075138;28;20198;-57
2021/05/06 05:36:43;;;;;;;3.80;2.83;;;8.90;99.90;;;;;;5075290;28;20195;-59
2021/05/06 05:39:23;;;;;;;5.97;2.87;;;8.90;99.90;;;;;;5073633;28;20424;-57
2021/05/06 05:55:01;;;;;;;3.80;3.13;;;9.20;99.90;;;;;;5074831;28;20431;-56
2021/05/06 05:57:27;;;;;;;5.87;3.27;;;9.10;99.90;;;;;;5074674;28;20537;-58
2021/05/06 05:59:53;;;;;;;4.73;2.60;;;9.00;99.90;;;;;;5074842;28;20171;-57
2021/05/06 06:02:18;;;;;;;6.93;2.60;;;9.00;99.90;;;;;;5074752;28;20174;-55
2021/05/06 06:04:44;;;;;;;4.07;2.90;;;9.00;99.90;;;;;;5077191;28;20413;-56
2021/05/06 06:07:09;;;;;;;3.40;2.90;;;9.00;99.90;;;;;;5074815;28;20175;-58
2021/05/06 06:09:35;;;;;;;4.43;2.57;;;9.10;99.90;;;;;;5074537;28;20655;-58
2021/05/06 06:12:01;;;;;;;6.00;2.57;;;9.10;99.90;;;;;;5074888;28;20169;-58
2021/05/06 06:14:38;;;;;;;5.67;2.80;;;9.00;99.90;;;;;;5067875;28;20192;-61
2021/05/06 06:17:04;;;;;;;4.17;2.50;;;9.10;99.90;;;;;;5068951;28;20229;-57
2021/05/06 06:19:35;;;;;;;4.63;2.90;;;9.10;99.90;;;;;;5074445;28;20511;-58
2021/05/06 06:22:03;;;;;;;3.63;2.50;;;9.10;99.90;;;;;;5074231;28;20408;-55
2021/05/06 06:24:29;;;;;;;5.73;2.50;;;9.20;99.90;;;;;;5073503;28;21023;-59
2021/05/06 06:26:54;;;;;;;5.17;2.40;;;9.40;99.90;;;;;;5074414;28;20430;-58
2021/05/06 06:29:26;;;;;;;3.33;2.73;;;9.40;99.90;;;;;;5074281;28;20187;-56
2021/05/06 06:31:52;;;;;;;4.30;2.97;;;9.50;99.90;;;;;;5074301;28;20505;-56
2021/05/06 06:34:17;;;;;;;4.17;3.13;;;9.30;99.90;;;;;;5073880;28;20437;-58
2021/05/06 06:36:46;;;;;;;4.57;2.63;;;9.30;99.90;;;;;;5073748;28;20667;-59
2021/05/06 06:39:14;;;;;;;3.93;2.50;;;9.40;99.90;;;;;;5073910;28;20617;-57
2021/05/06 06:41:41;;;;;;;5.70;2.57;;;9.60;99.90;;;;;;5073809;28;20436;-59
2021/05/06 06:44:07;;;;;;;7.80;3.40;;;9.60;99.90;;;;;;5074063;28;20432;-58
2021/05/06 06:46:33;;;;;;;3.60;2.23;;;9.80;99.90;;;;;;5073458;28;20476;-57
2021/05/06 06:48:58;;;;;;;3.20;2.50;;;10.00;99.90;;;;;;5073459;28;20501;-58
2021/05/06 06:51:24;;;;;;;3.30;3.00;;;10.00;99.90;;;;;;5074101;28;20185;-58
2021/05/06 06:53:50;;;;;;;4.23;2.73;;;10.00;99.90;;;;;;5073665;28;20210;-57
2021/05/06 06:56:17;;;;;;;7.93;3.30;;;9.90;99.90;;;;;;5074207;28;20440;-56
2021/05/06 06:58:44;;;;;;;3.90;2.40;;;9.90;99.90;;;;;;5062911;28;20833;-57
2021/05/06 07:01:10;;;;;;;6.33;3.30;;;10.10;99.90;;;;;;5072745;28;20406;-56
2021/05/06 07:03:36;;;;;;;4.20;2.20;;;10.20;99.90;;;;;;5071228;28;21006;-58
2021/05/06 07:06:02;;;;;;;4.10;2.73;;;10.30;99.90;;;;;;5053271;28;20184;-58
2021/05/06 07:08:32;;;;;;;2.60;2.10;;;10.50;99.90;;;;;;5064527;28;20900;-58
2021/05/06 07:11:00;;;;;;;3.63;2.43;;;10.50;99.90;;;;;;5073797;28;20417;-58
2021/05/06 07:13:27;;;;;;;3.97;2.73;;;10.60;99.90;;;;;;5073517;28;20514;-58
2021/05/06 07:16:01;;;;;;;3.97;2.70;;;10.60;99.90;;;;;;5072487;28;20448;-58
2021/05/06 07:18:27;;;;;;;5.07;2.63;;;10.70;99.90;;;;;;5054299;28;20488;-58
2021/05/06 07:20:54;;;;;;;3.83;2.80;;;10.70;99.90;;;;;;5073266;28;20824;-56
2021/05/06 07:23:21;;;;;;;4.63;2.90;;;10.90;99.90;;;;;;5072566;28;20453;-58
2021/05/06 07:25:48;;;;;;;4.83;2.70;;;10.90;99.90;;;;;;5073434;28;20921;-54
2021/05/06 07:28:16;;;;;;;5.20;2.50;;;10.90;99.90;;;;;;5074439;28;20488;-57
2021/05/06 07:30:43;;;;;;;5.17;2.50;;;10.80;99.90;;;;;;5073387;28;20879;-55
2021/05/06 07:33:10;;;;;;;5.30;2.40;;;10.90;99.90;;;;;;5070759;28;20443;-58
2021/05/06 07:35:36;;;;;;;4.40;2.43;;;10.90;99.90;;;;;;5073239;28;20478;-58
2021/05/06 07:38:02;;;;;;;5.43;3.10;;;11.00;99.90;;;;;;5072423;28;20404;-57
2021/05/06 07:40:27;;;;;;;6.03;2.60;;;11.00;99.90;;;;;;5073289;28;20243;-57
2021/05/06 07:42:53;;;;;;;5.53;2.60;;;11.00;99.90;;;;;;5071343;28;20486;-58
2021/05/06 07:45:20;;;;;;;6.93;2.77;;;10.90;99.90;;;;;;5072108;28;20170;-56
2021/05/06 07:47:46;;;;;;;6.80;2.70;;;11.10;99.90;;;;;;5072966;28;20226;-58
2021/05/06 07:50:12;;;;;;;5.03;2.73;;;11.40;99.90;;;;;;5072844;28;20426;-58
2021/05/06 07:52:38;;;;;;;2.83;2.40;;;11.40;99.90;;;;;;5068518;28;20520;-55
2021/05/06 07:55:04;;;;;;;5.80;2.87;;;11.40;99.90;;;;;;5052929;28;20186;-58
2021/05/06 07:57:30;;;;;;;6.70;2.80;;;11.30;99.90;;;;;;5052744;28;20532;-58
2021/05/06 07:59:55;;;;;;;5.27;2.57;;;11.50;99.90;;;;;;5072714;28;20498;-58
2021/05/06 08:02:21;;;;;;;3.67;2.50;;;11.80;99.90;;;;;;5072658;28;20601;-56
2021/05/06 08:04:47;;;;;;;6.67;2.83;;;11.60;99.90;;;;;;5068839;23;20598;-59
2021/05/06 08:07:13;;;;;;;3.53;2.80;;;11.80;99.90;;;;;;5035288;28;20417;-57
2021/05/06 08:09:38;;;;;;;6.40;3.10;;;11.90;99.90;;;;;;5051487;28;20187;-59
2021/05/06 08:12:05;;;;;;;5.50;3.20;;;11.70;99.90;;;;;;5034905;28;20552;-57
2021/05/06 08:14:30;;;;;;;5.10;2.80;;;11.90;99.90;;;;;;5053298;28;20193;-59
2021/05/06 08:16:57;;;;;;;2.83;2.30;;;11.90;99.90;;;;;;5072766;28;20869;-59
2021/05/06 08:19:22;;;;;;;3.63;2.27;;;11.80;99.90;;;;;;5047617;28;20168;-58
2021/05/06 08:21:48;;;;;;;10.33;2.80;;;11.40;99.90;;;;;;5067857;28;20916;-58
2021/05/06 08:24:14;;;;;;;5.77;2.70;;;11.30;99.90;;;;;;5075685;28;20224;-57
2021/05/06 08:26:40;;;;;;;3.03;2.80;;;11.40;99.90;;;;;;5076333;28;20165;-59
2021/05/06 08:29:06;;;;;;;4.27;2.80;;;11.40;99.90;;;;;;5076395;28;20167;-61
2021/05/06 08:31:32;;;;;;;5.63;2.57;;;11.60;99.90;;;;;;5075929;28;20419;-60
2021/05/06 08:33:58;;;;;;;7.30;2.50;;;11.40;99.90;;;;;;5038529;28;20909;-59
2021/05/06 08:36:24;;;;;;;6.03;3.00;;;11.40;99.90;;;;;;5042626;28;20741;-59
2021/05/06 08:38:50;;;;;;;4.13;2.60;;;11.60;99.90;;;;;;5055309;28;20405;-60
2021/05/06 08:41:17;;;;;;;6.53;3.20;;;11.40;99.90;;;;;;5047916;28;20416;-59
2021/05/06 08:43:47;;;;;;;9.03;2.70;;;11.50;99.90;;;;;;5050837;28;20805;-60
2021/05/06 08:46:15;;;;;;;4.70;3.07;;;11.70;99.90;;;;;;5071573;28;20780;-59
2021/05/06 08:48:41;;;;;;;5.60;3.10;;;11.70;99.90;;;;;;5058488;28;20749;-60
2021/05/06 08:51:07;;;;;;;6.50;2.83;;;11.80;99.90;;;;;;5056107;28;20405;-59
2021/05/06 08:53:33;;;;;;;5.07;2.63;;;11.80;99.90;;;;;;5037719;28;20428;-60
2021/05/06 08:55:59;;;;;;;8.40;2.83;;;12.10;99.90;;;;;;5055904;28;20449;-60
2021/05/06 08:58:25;;;;;;;4.77;2.80;;;12.30;99.90;;;;;;5055497;28;20406;-59
2021/05/06 09:00:51;;;;;;;5.87;2.90;;;12.30;99.90;;;;;;5038403;28;20176;-59
2021/05/06 09:03:17;;;;;;;4.33;2.40;;;12.10;99.90;;;;;;5035531;28;20461;-52
2021/05/06 09:06:11;;;;;;;3.87;3.20;;;12.10;99.90;;;;;;5035468;28;20163;-53
2021/05/06 09:08:38;;;;;;;7.50;3.40;;;12.30;99.90;;;;;;5035383;28;20242;-60
2021/05/06 09:11:04;;;;;;;6.90;3.33;;;12.20;99.90;;;;;;5017833;28;20439;-58
2021/05/06 09:13:31;;;;;;;5.50;2.77;;;12.30;99.90;;;;;;5053048;28;20425;-60
2021/05/06 09:15:57;;;;;;;3.70;2.47;;;12.30;99.90;;;;;;5067892;28;20205;-60
2021/05/06 09:18:44;;;;;;;6.17;3.17;;;12.30;99.90;;;;;;5058228;28;20421;-57
2021/05/06 09:21:25;;;;;;;8.33;2.97;;;12.00;99.90;;;;;;5065661;28;20984;-59
2021/05/06 09:24:10;;;;;;;5.20;2.57;;;11.70;99.90;;;;;;5075198;28;20421;-51
2021/05/06 09:26:38;;;;;;;4.70;3.13;;;11.80;99.90;;;;;;5075466;28;20918;-52
2021/05/06 09:29:07;;;;;;;5.03;2.80;;;12.00;99.90;;;;;;5074616;28;20441;-52
2021/05/06 09:31:35;;;;;;;6.87;3.17;;;12.20;99.90;;;;;;5074344;28;20430;-58
2021/05/06 09:34:04;;;;;;;10.03;3.20;;;12.30;99.90;;;;;;5074875;28;20431;-57
2021/05/06 09:36:30;;;;;;;6.90;3.37;;;12.40;99.90;;;;;;5064898;28;20487;-56
2021/05/06 09:38:57;;;;;;;5.63;4.23;;;12.40;99.90;;;;;;5046061;28;20450;-59
2021/05/06 09:41:29;;;;;;;6.00;3.13;;;12.40;99.90;;;;;;5035080;28;20250;-55
2021/05/06 09:44:05;;;;;;;5.13;2.90;;;12.50;99.90;;;;;;5047562;28;20798;-51
2021/05/06 09:46:39;;;;;;;5.83;2.70;;;12.30;99.90;;;;;;5057684;28;20421;-51
2021/05/06 09:49:10;;;;;;;4.17;2.53;;;12.30;99.90;;;;;;5054877;28;20393;-52
2021/05/06 09:51:49;;;;;;;7.10;2.60;;;12.30;99.90;;;;;;5054626;28;20415;-53
2021/05/06 09:54:18;;;;;;;5.07;2.63;;;12.20;99.90;;;;;;5053658;28;20459;-52
2021/05/06 09:56:44;;;;;;;5.03;2.80;;;12.20;99.90;;;;;;5054815;28;20445;-50
2021/05/06 09:59:22;;;;;;;4.30;2.30;;;12.30;99.90;;;;;;5055019;28;20405;-52
2021/05/06 10:01:47;;;;;;;3.03;2.40;;;12.30;99.90;;;;;;5062028;28;20475;-52
2021/05/06 10:04:20;;;;;;;4.03;2.60;;;12.20;99.90;;;;;;5074147;28;20526;-51
2021/05/06 10:07:04;;;;;;;5.40;2.70;;;12.20;99.90;;;;;;5075031;28;20253;-51
2021/05/06 10:09:31;;;;;;;7.03;3.10;;;12.20;99.90;;;;;;5074377;28;20491;-52
2021/05/06 10:11:57;;;;;;;6.43;2.93;;;12.20;99.90;;;;;;5074614;28;20920;-58
2021/05/06 10:14:23;;;;;;;2.97;2.60;;;12.50;99.90;;;;;;5074946;28;20511;-58
2021/05/06 10:16:49;;;;;;;6.90;3.10;;;12.60;99.90;;;;;;5058423;28;20904;-55
2021/05/06 10:19:16;;;;;;;6.00;2.77;;;12.60;99.90;;;;;;5054454;28;20405;-58
2021/05/06 10:21:46;;;;;;;7.30;2.73;;;12.50;99.90;;;;;;5054534;28;20170;-50
2021/05/06 10:24:15;;;;;;;4.10;2.30;;;12.10;99.90;;;;;;5036191;28;20795;-48
2021/05/06 10:26:41;;;;;;;5.70;2.50;;;12.00;99.90;;;;;;5054403;28;20404;-59
2021/05/06 10:29:07;;;;;;;2.87;2.43;;;12.10;99.90;;;;;;5054628;28;20463;-57
2021/05/06 10:31:39;;;;;;;4.97;2.37;;;12.20;99.90;;;;;;5054579;28;21037;-49
2021/05/06 10:34:07;;;;;;;4.30;2.70;;;12.30;99.90;;;;;;5054563;28;20422;-51
2021/05/06 10:36:34;;;;;;;2.73;2.43;;;12.30;99.90;;;;;;5054394;28;20602;-50
2021/05/06 10:39:00;;;;;;;2.93;2.60;;;11.80;99.90;;;;;;5055187;28;20405;-51
2021/05/06 10:41:32;;;;;;;3.77;2.47;;;11.60;99.90;;;;;;5056118;28;20468;-50
2021/05/06 10:44:06;;;;;;;2.87;2.20;;;11.60;99.90;;;;;;5054189;28;20425;-56
2021/05/06 10:47:01;;;;;;;4.57;2.97;;;11.50;99.90;;;;;;5053938;28;20423;-58
2021/05/06 10:49:39;;;;;;;4.40;2.83;;;11.60;99.90;;;;;;5054431;28;20866;-58
2021/05/06 10:52:07;;;;;;;4.60;2.53;;;11.40;99.90;;;;;;5053832;28;20392;-50
2021/05/06 10:54:51;;;;;;;3.70;2.33;;;11.50;99.90;;;;;;5053237;28;20508;-54
2021/05/06 10:57:19;;;;;;;5.17;2.00;;;11.70;99.90;;;;;;5043947;28;20493;-54
2021/05/06 10:59:46;;;;;;;6.50;2.47;;;11.60;99.90;;;;;;5040121;28;20418;-51
2021/05/06 11:02:40;;;;;;;3.60;2.27;;;11.60;99.90;;;;;;5062622;28;20404;-51
2021/05/06 11:05:28;;;;;;;2.80;2.00;;;11.80;99.90;;;;;;5068604;28;20448;-50
2021/05/06 11:08:03;;;;;;;1.80;1.70;;;11.80;99.90;;;;;;5072762;28;20487;-52
2021/05/06 11:10:29;;;;;;;2.57;2.10;;;11.90;99.90;;;;;;5069801;28;20411;-54
2021/05/06 11:12:56;;;;;;;5.50;2.10;;;11.80;99.90;;;;;;5052666;28;21014;-60
2021/05/06 11:15:23;;;;;;;2.30;2.10;;;11.90;99.90;;;;;;5049442;28;20517;-59
2021/05/06 11:17:50;;;;;;;3.30;2.03;;;12.00;99.90;;;;;;5033560;28;20452;-60
2021/05/06 11:20:16;;;;;;;4.30;1.60;;;12.10;99.90;;;;;;5033821;28;20436;-57
2021/05/06 11:22:41;;;;;;;2.40;1.60;;;11.90;99.90;;;;;;5033476;28;20403;-52
2021/05/06 11:25:25;;;;;;;2.03;1.73;;;12.00;99.90;;;;;;5033349;28;20550;-50
2021/05/06 11:27:52;;;;;;;3.87;1.80;;;12.00;99.90;;;;;;5033395;28;20171;-51
2021/05/06 11:30:33;;;;;;;4.23;2.03;;;12.10;99.90;;;;;;5032856;28;20501;-58
2021/05/06 11:33:17;;;;;;;3.07;1.80;;;12.10;99.90;;;;;;5052986;28;20409;-59
2021/05/06 11:35:56;;;;;;;7.40;2.20;;;12.00;99.90;;;;;;5045842;28;20421;-59
2021/05/06 11:38:37;;;;;;;3.30;1.83;;;12.00;99.90;;;;;;5032473;28;20953;-58
2021/05/06 11:41:06;;;;;;;2.07;1.30;;;12.20;99.90;;;;;;5033384;28;20818;-59
2021/05/06 11:43:35;;;;;;;2.90;1.33;;;12.30;99.90;;;;;;5033064;28;20436;-58
2021/05/06 11:46:09;;;;;;;1.63;1.53;;;12.20;99.90;;;;;;5042103;28;20432;-59
2021/05/06 11:48:46;;;;;;;2.57;1.57;;;12.10;99.90;;;;;;5033037;28;20781;-59
2021/05/06 11:51:30;;;;;;;3.43;1.97;;;12.00;99.90;;;;;;5032852;28;20435;-59
2021/05/06 11:54:07;;;;;;;2.53;1.30;;;12.10;99.90;;;;;;5032555;28;20871;-50
2021/05/06 11:56:54;;;;;;;3.83;1.90;;;12.30;99.90;;;;;;5032542;28;20495;-50
2021/05/06 11:59:23;;;;;;;1.60;1.50;;;12.10;99.90;;;;;;5044963;28;20413;-59
2021/05/06 12:01:50;;;;;;;3.20;2.33;;;12.10;99.90;;;;;;5053211;28;20769;-58
2021/05/06 12:04:26;;;;;;;1.10;0.90;;;12.20;99.90;;;;;;5052853;28;20804;-56
2021/05/06 12:06:53;;;;;;;1.37;1.07;;;12.30;99.90;;;;;;5035126;28;20448;-59
2021/05/06 12:09:28;;;;;;;1.20;0.83;;;12.00;99.90;;;;;;5052443;28;20409;-56
2021/05/06 12:11:54;;;;;;;2.27;0.90;;;12.00;99.90;;;;;;5053307;28;20495;-57
2021/05/06 12:14:29;;;;;;;1.73;1.00;;;12.10;99.90;;;;;;5052459;28;20507;-58
2021/05/06 12:16:55;;;;;;;1.20;1.10;;;12.20;99.90;;;;;;5036007;28;20203;-58
2021/05/06 12:19:21;;;;;;;1.80;1.30;;;12.10;99.90;;;;;;5033268;28;20414;-55
2021/05/06 12:21:53;;;;;;;2.13;1.10;;;11.90;99.90;;;;;;5033143;28;20505;-58
2021/05/06 12:24:36;;;;;;;3.03;1.10;;;12.20;99.90;;;;;;5032328;28;20180;-56
2021/05/06 12:27:24;;;;;;;1.63;1.20;;;12.30;99.90;;;;;;5032984;28;20426;-59
2021/05/06 12:30:00;;;;;;;1.27;1.00;;;12.20;99.90;;;;;;5032477;28;20457;-57
2021/05/06 12:32:33;;;;;;;1.40;1.30;;;12.20;99.90;;;;;;5032781;28;20405;-58
2021/05/06 12:35:00;;;;;;;3.30;1.10;;;12.30;99.90;;;;;;5032327;28;21023;-55
2021/05/06 12:37:27;;;;;;;1.40;1.30;;;12.20;99.90;;;;;;5032598;28;20499;-56
2021/05/06 12:39:53;;;;;;;2.47;1.47;;;12.00;99.90;;;;;;5032139;28;20494;-57
2021/05/06 12:42:32;;;;;;;1.50;1.37;;;12.20;99.90;;;;;;5032683;28;20402;-56
2021/05/06 12:44:59;;;;;;;1.33;1.10;;;12.10;99.90;;;;;;5031359;28;20445;-57
2021/05/06 12:47:43;;;;;;;1.60;1.50;;;12.30;99.90;;;;;;5032502;28;20414;-56
2021/05/06 12:50:15;;;;;;;1.17;1.07;;;12.40;99.90;;;;;;5032906;28;20492;-58
2021/05/06 12:52:42;;;;;;;1.43;1.30;;;12.50;99.90;;;;;;5032231;28;20408;-58
2021/05/06 12:55:25;;;;;;;1.53;1.43;;;12.60;99.90;;;;;;5032206;28;20777;-57
2021/05/06 12:58:06;;;;;;;2.00;1.20;;;12.80;99.90;;;;;;5032862;28;20428;-57
2021/05/06 13:00:34;;;;;;;1.57;1.37;;;12.80;99.90;;;;;;5032263;28;20445;-59
2021/05/06 13:03:13;;;;;;;1.83;1.70;;;12.70;99.90;;;;;;5032272;28;20431;-56
2021/05/06 13:05:49;;;;;;;1.63;1.53;;;12.90;99.90;;;;;;5036440;28;20879;-57
2021/05/06 13:08:15;;;;;;;2.10;1.43;;;12.70;99.90;;;;;;5035908;28;20890;-58
2021/05/06 13:10:43;;;;;;;1.83;1.37;;;12.70;99.90;;;;;;5035969;28;20398;-54
2021/05/06 13:13:11;;;;;;;6.33;2.50;;;12.60;99.90;;;;;;5036213;28;20505;-57
2021/05/06 13:15:51;;;;;;;3.03;2.10;;;12.30;99.90;;;;;;5050821;28;20412;-57
2021/05/06 13:18:18;;;;;;;2.07;1.40;;;12.20;99.90;;;;;;5055906;28;20443;-57
2021/05/06 13:20:44;;;;;;;3.13;1.37;;;12.10;99.90;;;;;;5055561;28;20432;-59
2021/05/06 13:23:12;;;;;;;4.20;2.40;;;12.00;99.90;;;;;;5055621;28;20424;-58
2021/05/06 13:25:49;;;;;;;2.57;1.90;;;12.10;99.90;;;;;;5055501;28;20496;-57
2021/05/06 13:28:16;;;;;;;2.43;2.23;;;12.20;99.90;;;;;;5054687;28;20484;-58
2021/05/06 13:30:46;;;;;;;2.00;1.50;;;12.10;99.90;;;;;;5055297;28;20782;-57
2021/05/06 13:33:21;;;;;;;2.50;2.03;;;12.10;99.90;;;;;;5055045;28;20413;-56
2021/05/06 13:36:04;;;;;;;3.23;2.07;;;12.10;99.90;;;;;;5037268;28;20940;-56
2021/05/06 13:38:48;;;;;;;2.20;1.87;;;12.10;99.90;;;;;;5037755;28;20416;-57
2021/05/06 13:41:14;;;;;;;3.20;2.10;;;12.00;99.90;;;;;;5054441;28;20409;-56
2021/05/06 13:43:40;;;;;;;2.17;1.97;;;12.00;99.90;;;;;;5055357;28;20820;-56
2021/05/06 13:46:11;;;;;;;2.43;2.23;;;12.00;99.90;;;;;;5054812;28;20413;-58
2021/05/06 13:48:37;;;;;;;2.47;2.27;;;12.10;99.90;;;;;;5055106;28;20770;-57
2021/05/06 13:51:05;;;;;;;2.73;2.53;;;12.10;99.90;;;;;;5055346;28;20452;-55
2021/05/06 13:53:30;;;;;;;3.00;2.07;;;12.20;99.90;;;;;;5055041;28;20796;-53
2021/05/06 13:55:56;;;;;;;3.20;1.83;;;12.20;99.90;;;;;;5055318;28;20411;-48
2021/05/06 13:58:21;;;;;;;2.27;1.47;;;12.20;99.90;;;;;;5055172;28;20159;-50
2021/05/06 14:00:47;;;;;;;2.93;2.10;;;12.20;99.90;;;;;;5057166;28;20694;-50
2021/05/06 14:03:12;;;;;;;2.63;2.37;;;12.30;99.90;;;;;;5055011;28;20577;-57
2021/05/06 14:05:38;;;;;;;3.07;1.83;;;12.30;99.90;;;;;;5079032;22;20206;-57
2021/05/06 14:08:04;;;;;;;5.30;2.13;;;12.10;99.90;;;;;;5074314;28;20212;-58
2021/05/06 14:10:29;;;;;;;4.43;2.50;;;11.70;99.90;;;;;;5074404;28;20177;-57
2021/05/06 14:12:55;;;;;;;5.50;4.50;;;11.70;99.90;;;;;;5074434;28;20170;-57
2021/05/06 14:15:20;;;;;;;2.73;2.50;;;11.70;99.90;;;;;;5073996;28;20281;-57
2021/05/06 14:17:46;;;;;;;4.33;2.90;;;11.80;99.90;;;;;;5074372;28;20198;-57
2021/05/06 14:20:12;;;;;;;2.40;2.20;;;11.90;99.90;;;;;;5074226;28;20606;-56
2021/05/06 14:22:38;;;;;;;2.60;1.90;;;11.80;99.90;;;;;;5073981;28;20211;-57
2021/05/06 14:25:03;;;;;;;4.00;1.73;;;12.00;99.90;;;;;;5074201;28;20928;-57
2021/05/06 14:27:29;;;;;;;2.40;1.70;;;12.30;99.90;;;;;;5074289;28;20261;-57
2021/05/06 14:29:55;;;;;;;3.67;2.07;;;12.40;99.90;;;;;;5073782;28;20409;-57
2021/05/06 14:32:20;;;;;;;1.53;1.43;;;12.40;99.90;;;;;;5074410;28;20524;-57
2021/05/06 14:34:46;;;;;;;2.00;1.80;;;12.50;99.90;;;;;;5074211;28;20189;-56
2021/05/06 14:37:11;;;;;;;2.30;1.70;;;12.40;99.90;;;;;;5073994;28;20186;-57
2021/05/06 14:39:37;;;;;;;3.23;1.63;;;12.20;99.90;;;;;;5073619;28;20216;-56
2021/05/06 14:42:02;;;;;;;1.83;1.60;;;11.90;99.90;;;;;;5074464;28;20193;-57
2021/05/06 14:44:28;;;;;;;3.03;2.17;;;11.60;99.90;;;;;;5073725;28;20273;-56
2021/05/06 14:46:56;;;;;;;1.73;1.30;;;11.50;99.90;;;;;;5073732;28;20170;-57
2021/05/06 14:49:21;;;;;;;2.73;2.03;;;11.50;99.90;;;;;;5073758;28;20172;-57
2021/05/06 14:51:47;;;;;;;1.70;1.60;;;11.40;99.90;;;;;;5073752;28;20407;-57
2021/05/06 14:54:13;;;;;;;2.20;1.27;;;11.50;99.90;;;;;;5073333;28;20671;-57
2021/05/06 14:56:38;;;;;;;1.90;1.10;;;11.20;99.90;;;;;;5073865;28;20283;-56
2021/05/06 14:59:04;;;;;;;2.80;1.40;;;11.10;99.90;;;;;;5073666;28;20233;-54
2021/05/06 15:01:32;;;;;;;1.37;1.27;;;11.10;99.90;;;;;;5073552;28;20170;-56
2021/05/06 15:03:58;;;;;;;1.83;1.10;;;11.10;99.90;;;;;;5073350;28;20170;-57
2021/05/06 15:06:23;;;;;;;1.47;1.10;;;11.10;99.90;;;;;;5073242;28;20478;-57
2021/05/06 15:08:49;;;;;;;1.33;1.10;;;11.20;99.90;;;;;;5073118;28;20201;-57
2021/05/06 15:11:15;;;;;;;1.83;1.00;;;11.30;99.90;;;;;;5073605;28;20696;-56
2021/05/06 15:13:41;;;;;;;0.70;0.70;;;11.50;99.90;;;;;;5073282;28;20170;-57
2021/05/06 15:16:07;;;;;;;1.23;1.13;;;11.70;99.90;;;;;;5072844;28;20860;-54
2021/05/06 15:18:33;;;;;;;1.53;1.20;;;11.80;99.90;;;;;;5073148;28;20443;-55
2021/05/06 15:20:58;;;;;;;1.40;0.90;;;11.80;99.90;;;;;;5073202;28;20163;-57
2021/05/06 15:23:24;;;;;;;1.37;1.20;;;11.90;99.90;;;;;;5072864;28;20628;-56
2021/05/06 15:25:49;;;;;;;1.30;1.00;;;12.10;99.90;;;;;;5072916;28;20563;-56
2021/05/06 15:28:15;;;;;;;1.40;1.10;;;12.10;99.90;;;;;;5072535;28;20548;-56
2021/05/06 15:30:41;;;;;;;1.73;1.00;;;11.70;99.90;;;;;;5072887;28;20165;-55
2021/05/06 15:33:06;;;;;;;1.77;1.10;;;11.90;99.90;;;;;;5073092;28;20314;-56
2021/05/06 15:35:32;;;;;;;1.50;0.97;;;12.00;99.90;;;;;;5073089;28;20220;-54
2021/05/06 15:37:58;;;;;;;3.13;1.00;;;12.10;99.90;;;;;;5072952;28;20681;-57
2021/05/06 15:40:23;;;;;;;1.47;1.13;;;12.10;99.90;;;;;;5072854;28;20170;-57
2021/05/06 15:42:49;;;;;;;2.07;1.60;;;12.10;99.90;;;;;;5072957;28;20162;-53
2021/05/06 15:45:15;;;;;;;1.60;1.50;;;12.00;99.90;;;;;;5072794;28;20257;-56
2021/05/06 15:47:41;;;;;;;29.03;26.00;;;11.80;99.90;;;;;;5073260;28;20207;-57
2021/05/06 15:50:09;;;;;;;2.67;1.80;;;11.60;99.90;;;;;;5073006;28;20908;-57
2021/05/06 15:52:36;;;;;;;2.83;1.80;;;11.90;99.90;;;;;;5072387;28;20747;-59
2021/05/06 15:55:04;;;;;;;1.83;1.60;;;11.80;99.90;;;;;;5072346;28;20484;-55
2021/05/06 15:57:30;;;;;;;2.80;1.63;;;11.80;99.90;;;;;;5073390;28;20500;-56
2021/05/06 15:59:56;;;;;;;2.83;2.10;;;11.70;99.90;;;;;;5072984;28;20901;-55
2021/05/06 16:02:24;;;;;;;6.03;3.27;;;11.60;99.90;;;;;;5068373;28;20163;-53
2021/05/06 16:04:49;;;;;;;2.20;2.00;;;11.50;99.90;;;;;;5052558;28;20195;-57
2021/05/06 16:07:16;;;;;;;1.83;1.47;;;11.40;99.90;;;;;;5052696;28;20939;-55
2021/05/06 16:09:41;;;;;;;2.67;1.70;;;11.40;99.90;;;;;;5052737;28;20170;-57
2021/05/06 16:12:07;;;;;;;2.60;1.63;;;11.40;99.90;;;;;;5052392;28;20423;-57
2021/05/06 16:14:33;;;;;;;1.87;1.70;;;11.50;99.90;;;;;;5052619;28;20440;-57
2021/05/06 16:16:58;;;;;;;1.90;1.57;;;11.50;99.90;;;;;;5052243;28;20232;-57
2021/05/06 16:19:24;;;;;;;4.30;2.17;;;11.30;99.90;;;;;;5052508;28;20185;-55